Time;durP1;ratioP1;P1;durP2;ratioP2;P2;SDS_P1;SDS_P2;PMS_P1;PMS_P2;Temp;Humidity;BMP_temperature;BMP_pressure;BME280_temperature;BME280_humidity;BME280_pressure;Samples;Min_cycle;Max_cycle;Signal;HPM_P1;HPM_P2
2022/04/12 00:01:02;;;;;;;3.10;2.80;;;11.40;64.70;;;;;;5094122;28;20762;-83
2022/04/12 00:03:28;;;;;;;3.40;3.10;;;11.30;65.20;;;;;;5084935;28;20194;-83
2022/04/12 00:05:54;;;;;;;4.30;2.60;;;11.20;65.40;;;;;;5084531;28;20227;-82
2022/04/12 00:08:20;;;;;;;3.60;3.30;;;11.00;66.70;;;;;;5089844;28;20219;-82
2022/04/12 00:10:46;;;;;;;3.37;3.07;;;11.00;66.60;;;;;;5085695;28;20785;-83
2022/04/12 00:13:13;;;;;;;4.43;2.83;;;11.00;66.30;;;;;;5087796;28;21190;-82
2022/04/12 00:15:39;;;;;;;3.00;2.50;;;11.10;66.40;;;;;;5077350;28;20188;-83
2022/04/12 00:20:49;;;;;;;3.43;3.03;;;11.10;66.20;;;;;;5079575;28;20261;-83
2022/04/12 00:23:15;;;;;;;3.60;3.30;;;11.10;66.40;;;;;;5079626;28;20189;-83
2022/04/12 00:25:44;;;;;;;3.43;3.00;;;11.10;65.90;;;;;;5081689;28;20230;-84
2022/04/12 00:28:11;;;;;;;4.47;3.00;;;11.20;65.70;;;;;;5092369;28;20189;-83
2022/04/12 00:30:38;;;;;;;3.30;3.00;;;11.10;66.10;;;;;;5092576;28;20185;-81
2022/04/12 00:33:04;;;;;;;3.53;3.07;;;11.10;66.20;;;;;;5085140;28;20200;-83
2022/04/12 00:35:30;;;;;;;2.90;2.60;;;11.10;66.00;;;;;;5087886;28;20749;-82
2022/04/12 00:37:56;;;;;;;3.40;3.00;;;11.00;66.00;;;;;;5085970;28;20219;-83
2022/04/12 00:40:26;;;;;;;3.97;3.00;;;11.00;66.50;;;;;;5089139;28;20214;-83
2022/04/12 00:42:55;;;;;;;3.60;2.87;;;10.90;67.20;;;;;;5089278;28;20195;-83
2022/04/12 00:45:21;;;;;;;4.43;2.77;;;10.80;67.20;;;;;;5086479;28;20173;-83
2022/04/12 00:47:47;;;;;;;3.27;2.97;;;10.80;67.50;;;;;;5091219;28;20200;-83
2022/04/12 00:50:14;;;;;;;3.50;2.70;;;10.80;67.20;;;;;;5081791;28;20199;-83
2022/04/12 00:52:43;;;;;;;3.33;3.03;;;10.80;67.50;;;;;;5075715;28;20196;-83
2022/04/12 00:55:10;;;;;;;2.97;2.77;;;10.70;67.60;;;;;;5081258;28;20217;-83
2022/04/12 00:57:36;;;;;;;3.30;2.87;;;10.80;67.50;;;;;;5077583;28;20189;-83
2022/04/12 01:00:05;;;;;;;5.03;2.83;;;10.80;67.70;;;;;;5072310;28;20219;-83
2022/04/12 01:02:32;;;;;;;3.47;3.17;;;10.70;67.60;;;;;;5080451;28;20189;-82
2022/04/12 01:04:59;;;;;;;3.40;3.10;;;10.70;67.90;;;;;;5083565;28;20221;-83
2022/04/12 01:07:25;;;;;;;3.13;2.83;;;10.70;67.80;;;;;;5079627;28;20194;-82
2022/04/12 01:09:53;;;;;;;3.17;2.87;;;10.60;67.90;;;;;;5082125;28;20197;-83
2022/04/12 01:12:21;;;;;;;3.07;2.67;;;10.60;68.10;;;;;;5079765;28;20186;-82
2022/04/12 01:14:47;;;;;;;2.83;2.60;;;10.50;68.40;;;;;;5081240;28;20728;-83
2022/04/12 01:17:15;;;;;;;2.47;2.20;;;10.60;68.60;;;;;;5077854;28;20180;-82
2022/04/12 01:19:41;;;;;;;3.00;2.80;;;10.60;68.20;;;;;;5082498;28;20213;-83
2022/04/12 01:22:12;;;;;;;3.67;3.20;;;10.60;68.10;;;;;;5074658;28;20191;-83
2022/04/12 01:24:38;;;;;;;2.83;2.63;;;10.50;68.50;;;;;;5080265;28;20217;-83
2022/04/12 01:27:04;;;;;;;2.90;2.70;;;10.50;68.70;;;;;;5079620;28;20205;-82
2022/04/12 01:29:35;;;;;;;3.50;3.20;;;10.50;68.50;;;;;;5075081;28;20234;-83
2022/04/12 01:32:07;;;;;;;4.73;3.17;;;10.50;68.40;;;;;;5080919;28;20215;-83
2022/04/12 01:34:36;;;;;;;3.80;3.23;;;10.50;69.10;;;;;;5075597;28;20234;-83
2022/04/12 01:37:05;;;;;;;4.13;2.90;;;10.40;68.80;;;;;;5079610;28;20638;-82
2022/04/12 01:39:31;;;;;;;3.60;3.30;;;10.50;68.80;;;;;;5083354;28;20298;-83
2022/04/12 01:41:57;;;;;;;6.33;2.90;;;10.30;69.50;;;;;;5070315;28;20200;-82
2022/04/12 01:44:23;;;;;;;4.03;3.10;;;10.30;69.30;;;;;;5080534;28;20282;-83
2022/04/12 01:46:49;;;;;;;3.43;3.13;;;10.30;69.10;;;;;;5082788;28;20210;-82
2022/04/12 01:49:16;;;;;;;3.27;2.97;;;10.30;69.10;;;;;;5082699;28;20192;-82
2022/04/12 01:51:45;;;;;;;3.17;2.87;;;10.30;69.20;;;;;;5090657;28;20213;-83
2022/04/12 01:54:10;;;;;;;3.60;3.30;;;10.30;69.30;;;;;;5091223;28;20219;-82
2022/04/12 01:56:36;;;;;;;5.57;3.77;;;10.40;69.00;;;;;;5079546;28;20188;-82
2022/04/12 01:59:04;;;;;;;3.93;3.03;;;10.30;69.00;;;;;;5077455;28;20218;-82
2022/04/12 02:01:30;;;;;;;3.67;2.90;;;10.10;69.50;;;;;;5073778;28;20185;-83
2022/04/12 02:03:56;;;;;;;4.13;3.70;;;10.10;70.20;;;;;;5076866;28;20239;-82
2022/04/12 02:06:21;;;;;;;3.33;3.03;;;10.00;70.30;;;;;;5079779;28;20196;-83
2022/04/12 02:08:47;;;;;;;3.30;3.00;;;9.90;71.10;;;;;;5075816;28;20196;-84
2022/04/12 02:11:13;;;;;;;2.90;2.70;;;9.90;70.90;;;;;;5083238;28;20206;-83
2022/04/12 02:13:39;;;;;;;3.50;3.20;;;9.90;70.60;;;;;;5089362;28;20212;-83
2022/04/12 02:16:05;;;;;;;3.33;3.13;;;10.00;70.60;;;;;;5080182;28;20222;-82
2022/04/12 02:18:32;;;;;;;3.33;3.00;;;9.90;70.30;;;;;;5079337;28;20224;-83
2022/04/12 02:20:57;;;;;;;4.10;3.43;;;9.90;70.30;;;;;;5066564;28;20177;-82
2022/04/12 02:23:23;;;;;;;3.60;3.30;;;9.90;70.30;;;;;;5082670;28;20224;-82
2022/04/12 02:25:49;;;;;;;3.23;2.93;;;10.00;70.10;;;;;;5075964;28;20490;-82
2022/04/12 02:28:16;;;;;;;4.00;3.03;;;9.90;70.30;;;;;;5075656;28;20216;-82
2022/04/12 02:30:43;;;;;;;3.63;3.30;;;9.90;70.30;;;;;;5072698;28;20184;-82
2022/04/12 02:33:09;;;;;;;3.40;3.10;;;9.90;70.40;;;;;;5074600;28;20209;-82
2022/04/12 02:35:35;;;;;;;3.13;2.83;;;9.90;70.40;;;;;;5078925;28;20227;-83
2022/04/12 02:38:01;;;;;;;3.10;2.80;;;9.90;70.40;;;;;;5075142;28;20184;-83
2022/04/12 02:40:30;;;;;;;3.47;3.17;;;9.80;70.70;;;;;;5100645;28;20206;-83
2022/04/12 02:42:55;;;;;;;4.00;2.80;;;9.80;70.90;;;;;;5079712;28;20192;-83
2022/04/12 02:45:21;;;;;;;3.43;3.13;;;9.80;70.60;;;;;;5065666;28;20202;-83
2022/04/12 02:47:47;;;;;;;3.87;2.90;;;9.60;71.90;;;;;;5082571;28;20240;-83
2022/04/12 02:50:12;;;;;;;2.90;2.70;;;9.60;72.00;;;;;;5094679;28;20820;-83
2022/04/12 02:52:38;;;;;;;3.07;2.77;;;9.60;71.90;;;;;;5068370;28;20203;-83
2022/04/12 02:55:04;;;;;;;3.80;2.77;;;9.50;72.40;;;;;;5073592;28;20211;-83
2022/04/12 02:57:30;;;;;;;5.53;3.30;;;9.50;72.30;;;;;;5071185;28;20184;-84
2022/04/12 02:59:56;;;;;;;4.30;3.00;;;9.60;72.60;;;;;;5084865;28;20418;-83
2022/04/12 03:02:22;;;;;;;4.30;3.10;;;9.60;72.30;;;;;;5082946;28;20200;-83
2022/04/12 03:04:47;;;;;;;3.77;3.47;;;9.60;72.30;;;;;;5082284;28;20225;-83
2022/04/12 03:07:14;;;;;;;3.20;2.90;;;9.60;71.90;;;;;;5084330;28;20191;-83
2022/04/12 03:09:41;;;;;;;3.33;3.03;;;9.60;72.10;;;;;;5084683;28;20206;-83
2022/04/12 03:12:07;;;;;;;3.40;3.10;;;9.50;71.90;;;;;;5085185;28;20188;-83
2022/04/12 03:14:33;;;;;;;3.53;2.93;;;9.50;72.30;;;;;;5074997;28;20209;-83
2022/04/12 03:16:59;;;;;;;4.93;3.80;;;9.50;72.40;;;;;;5072611;28;20200;-83
2022/04/12 03:19:25;;;;;;;3.77;3.33;;;9.50;72.40;;;;;;5087459;28;20227;-83
2022/04/12 03:21:50;;;;;;;3.40;3.10;;;9.50;72.60;;;;;;5085434;28;20179;-82
2022/04/12 03:24:16;;;;;;;4.13;3.03;;;9.40;72.90;;;;;;5090903;28;20219;-83
2022/04/12 03:26:42;;;;;;;4.07;3.30;;;9.30;73.10;;;;;;5076963;28;20620;-83
2022/04/12 03:29:07;;;;;;;4.23;3.43;;;9.30;73.00;;;;;;5085152;28;20180;-83
2022/04/12 03:31:33;;;;;;;4.07;3.27;;;9.30;73.60;;;;;;5076377;28;20188;-83
2022/04/12 03:33:59;;;;;;;4.47;3.53;;;9.30;73.50;;;;;;5072785;28;20208;-83
2022/04/12 03:36:25;;;;;;;4.63;3.23;;;9.20;73.50;;;;;;5068111;28;20191;-83
2022/04/12 03:38:52;;;;;;;3.53;3.23;;;9.20;74.00;;;;;;5068835;28;20307;-84
2022/04/12 03:41:23;;;;;;;3.80;3.50;;;9.00;74.60;;;;;;5072066;28;20207;-83
2022/04/12 03:43:50;;;;;;;3.83;3.10;;;9.00;74.60;;;;;;5075764;28;20230;-83
2022/04/12 03:46:16;;;;;;;4.53;4.13;;;9.00;74.60;;;;;;5095612;28;20321;-83
2022/04/12 03:48:43;;;;;;;13.03;4.27;;;9.00;75.00;;;;;;5082528;28;20191;-83
2022/04/12 03:51:10;;;;;;;5.53;3.90;;;9.00;74.70;;;;;;5083982;28;20202;-83
2022/04/12 03:53:37;;;;;;;3.77;3.40;;;8.90;74.50;;;;;;5079372;28;20211;-83
2022/04/12 03:56:07;;;;;;;3.57;3.27;;;8.70;75.60;;;;;;5073478;28;20204;-83
2022/04/12 03:58:36;;;;;;;5.03;3.87;;;8.80;75.90;;;;;;5083835;28;20200;-83
2022/04/12 04:01:02;;;;;;;4.03;3.63;;;8.80;76.10;;;;;;5076321;28;20189;-83
2022/04/12 04:03:29;;;;;;;5.47;3.53;;;8.90;76.30;;;;;;5075605;28;20207;-83
2022/04/12 04:05:55;;;;;;;4.10;3.70;;;8.90;75.40;;;;;;5071808;28;20184;-83
2022/04/12 04:08:21;;;;;;;3.83;3.50;;;9.00;75.50;;;;;;5075339;28;20531;-85
2022/04/12 04:10:47;;;;;;;4.17;3.57;;;8.80;75.50;;;;;;5071941;28;20254;-84
2022/04/12 04:13:12;;;;;;;4.10;3.80;;;8.80;75.80;;;;;;5070974;28;20695;-84
2022/04/12 04:15:41;;;;;;;4.10;3.43;;;8.90;75.30;;;;;;5081782;28;20566;-84
2022/04/12 04:18:10;;;;;;;3.67;3.30;;;8.70;75.30;;;;;;5078635;28;20366;-83
2022/04/12 04:20:36;;;;;;;3.70;3.40;;;8.70;75.30;;;;;;5062740;28;20279;-85
2022/04/12 04:23:02;;;;;;;6.37;3.40;;;8.70;76.20;;;;;;5071135;28;20179;-83
2022/04/12 04:25:28;;;;;;;3.40;3.10;;;8.70;74.90;;;;;;5072486;28;20916;-82
2022/04/12 04:27:55;;;;;;;5.70;3.40;;;8.80;75.70;;;;;;5070973;28;20183;-83
2022/04/12 04:30:21;;;;;;;3.30;3.03;;;8.70;75.00;;;;;;5074523;28;20195;-84
2022/04/12 04:32:47;;;;;;;3.93;3.43;;;8.70;75.20;;;;;;5080253;28;20271;-82
2022/04/12 04:35:13;;;;;;;6.03;3.67;;;8.70;74.80;;;;;;5070539;28;20258;-82
2022/04/12 04:37:46;;;;;;;3.10;2.90;;;8.70;75.30;;;;;;5070804;28;20200;-81
2022/04/12 04:40:17;;;;;;;5.77;3.90;;;8.70;75.50;;;;;;5076628;28;20238;-82
2022/04/12 04:42:44;;;;;;;12.27;10.87;;;8.80;75.20;;;;;;5077337;28;20188;-82
2022/04/12 04:45:11;;;;;;;6.80;4.10;;;8.80;75.30;;;;;;5071015;28;20233;-81
2022/04/12 04:47:58;;;;;;;8.63;4.40;;;8.80;75.10;;;;;;5082800;28;20205;-82
2022/04/12 04:50:26;;;;;;;4.50;3.87;;;8.70;76.50;;;;;;5075451;28;20268;-82
2022/04/12 04:52:52;;;;;;;8.27;4.17;;;8.60;77.70;;;;;;5071267;28;20188;-81
2022/04/12 04:55:18;;;;;;;6.13;4.10;;;8.60;78.00;;;;;;5078172;28;20278;-83
2022/04/12 04:57:45;;;;;;;8.57;7.73;;;8.80;77.90;;;;;;5071116;28;20219;-84
2022/04/12 05:00:15;;;;;;;5.63;5.03;;;8.80;77.50;;;;;;5081232;28;20211;-83
2022/04/12 05:02:45;;;;;;;5.30;4.50;;;8.80;76.80;;;;;;5074096;28;20222;-81
2022/04/12 05:05:11;;;;;;;4.33;3.90;;;8.70;76.90;;;;;;5070624;28;20231;-82
2022/04/12 05:07:41;;;;;;;4.57;3.73;;;8.50;78.00;;;;;;5069348;28;20177;-83
2022/04/12 05:10:08;;;;;;;8.33;4.50;;;8.30;79.20;;;;;;5069820;28;20198;-82
2022/04/12 05:12:34;;;;;;;6.03;4.17;;;8.20;81.10;;;;;;5077801;28;20196;-82
2022/04/12 05:15:00;;;;;;;9.53;4.30;;;8.20;80.40;;;;;;5077931;28;20696;-83
2022/04/12 05:17:27;;;;;;;5.03;4.10;;;8.10;81.20;;;;;;5070042;28;20209;-82
2022/04/12 05:19:53;;;;;;;5.07;3.67;;;7.90;83.20;;;;;;5075567;28;20271;-82
2022/04/12 05:22:19;;;;;;;4.27;3.87;;;8.10;82.40;;;;;;5073756;28;20192;-83
2022/04/12 05:24:46;;;;;;;4.40;3.97;;;8.20;81.30;;;;;;5060085;28;20215;-83
2022/04/12 05:27:12;;;;;;;6.00;4.17;;;8.20;81.30;;;;;;5062620;28;20164;-82
2022/04/12 05:29:38;;;;;;;5.33;4.17;;;8.30;80.70;;;;;;5074677;28;20188;-82
2022/04/12 05:32:05;;;;;;;5.20;3.87;;;8.40;81.20;;;;;;5066293;28;20241;-82
2022/04/12 05:34:30;;;;;;;16.23;5.47;;;8.50;80.20;;;;;;5070092;28;20294;-82
2022/04/12 05:36:56;;;;;;;8.20;4.80;;;8.60;79.70;;;;;;5074537;28;20215;-81
2022/04/12 05:39:22;;;;;;;4.87;4.37;;;8.60;79.90;;;;;;5087533;28;20217;-83
2022/04/12 05:41:48;;;;;;;5.00;4.30;;;8.60;79.60;;;;;;5080135;28;20175;-82
2022/04/12 05:44:14;;;;;;;5.37;4.17;;;8.70;79.50;;;;;;5082422;28;20220;-82
2022/04/12 05:46:39;;;;;;;6.40;5.03;;;8.90;78.70;;;;;;5066730;28;20243;-82
2022/04/12 05:49:05;;;;;;;6.97;5.80;;;8.90;79.50;;;;;;5074501;28;20755;-83
2022/04/12 05:51:31;;;;;;;5.53;4.97;;;8.80;79.70;;;;;;5079632;28;20222;-82
2022/04/12 05:53:57;;;;;;;5.60;5.10;;;8.90;79.20;;;;;;5079264;28;20214;-82
2022/04/12 05:56:23;;;;;;;7.63;6.73;;;9.00;79.20;;;;;;5079898;28;20196;-82
2022/04/12 05:58:48;;;;;;;8.63;7.37;;;9.00;79.10;;;;;;5080995;28;20689;-82
2022/04/12 06:01:14;;;;;;;11.87;8.90;;;9.00;78.40;;;;;;5076653;28;20211;-82
2022/04/12 06:03:40;;;;;;;16.33;11.50;;;9.10;78.60;;;;;;5078354;28;20203;-82
2022/04/12 06:06:05;;;;;;;10.77;6.40;;;9.10;78.60;;;;;;5081882;28;20219;-82
2022/04/12 06:08:31;;;;;;;11.90;7.47;;;9.20;78.90;;;;;;5083372;28;20211;-82
2022/04/12 06:10:57;;;;;;;7.70;6.90;;;9.20;78.80;;;;;;5087035;28;20196;-84
2022/04/12 06:13:22;;;;;;;10.33;6.77;;;9.30;78.50;;;;;;5089775;28;20197;-83
2022/04/12 06:15:48;;;;;;;7.23;5.87;;;9.30;78.30;;;;;;5083355;28;20195;-83
2022/04/12 06:18:14;;;;;;;6.53;5.43;;;9.30;78.50;;;;;;5082819;28;21569;-83
2022/04/12 06:20:40;;;;;;;30.40;9.73;;;9.50;77.90;;;;;;5083267;28;20187;-82
2022/04/12 06:23:05;;;;;;;29.30;9.23;;;9.50;78.40;;;;;;5079332;28;20184;-81
2022/04/12 06:25:31;;;;;;;19.87;8.27;;;9.60;77.80;;;;;;5089844;28;20185;-82
2022/04/12 06:27:57;;;;;;;21.30;9.07;;;9.70;77.00;;;;;;5090196;28;20187;-81
2022/04/12 06:30:26;;;;;;;13.40;7.87;;;9.60;77.50;;;;;;5086524;28;20244;-83
2022/04/12 06:32:53;;;;;;;7.30;5.90;;;9.60;78.30;;;;;;5079099;28;20184;-82
2022/04/12 06:35:19;;;;;;;8.10;6.33;;;9.50;76.60;;;;;;5083872;28;20215;-84
2022/04/12 06:37:46;;;;;;;8.87;6.80;;;9.60;76.60;;;;;;5082862;28;20191;-83
2022/04/12 06:40:13;;;;;;;11.17;6.10;;;9.70;76.90;;;;;;5082526;28;20316;-83
2022/04/12 06:42:40;;;;;;;7.63;6.50;;;9.70;76.80;;;;;;5081705;28;20873;-82
2022/04/12 06:45:08;;;;;;;11.63;6.80;;;9.80;76.30;;;;;;5083519;28;20303;-84
2022/04/12 06:47:33;;;;;;;24.97;7.87;;;9.90;76.30;;;;;;5087333;28;20183;-82
2022/04/12 06:49:59;;;;;;;9.43;6.93;;;10.10;75.00;;;;;;5081336;28;20197;-85
2022/04/12 06:52:25;;;;;;;13.97;7.67;;;10.20;74.00;;;;;;5080062;28;20185;-82
2022/04/12 06:54:51;;;;;;;36.03;9.77;;;10.20;74.10;;;;;;5082692;28;20233;-82
2022/04/12 06:57:18;;;;;;;216.63;30.40;;;10.20;73.60;;;;;;5081448;28;20187;-82
2022/04/12 06:59:45;;;;;;;13.40;7.90;;;10.30;72.70;;;;;;5074127;28;20807;-83
2022/04/12 07:02:10;;;;;;;12.30;7.23;;;10.40;71.90;;;;;;5073536;28;20188;-82
2022/04/12 07:04:36;;;;;;;9.50;6.43;;;10.50;70.90;;;;;;5078637;28;20204;-82
2022/04/12 07:07:03;;;;;;;7.23;6.63;;;10.40;71.10;;;;;;5078206;28;20180;-82
2022/04/12 07:09:29;;;;;;;9.10;6.73;;;10.60;71.20;;;;;;5083187;28;20194;-81
2022/04/12 07:11:56;;;;;;;10.93;7.23;;;10.70;70.20;;;;;;5077548;28;20189;-81
2022/04/12 07:14:23;;;;;;;7.30;6.57;;;10.90;69.90;;;;;;5079414;28;20206;-82
2022/04/12 07:16:48;;;;;;;23.87;7.60;;;11.00;69.10;;;;;;5079068;28;20192;-81
2022/04/12 07:19:15;;;;;;;6.27;5.40;;;11.20;68.20;;;;;;5078286;28;20210;-82
2022/04/12 07:21:41;;;;;;;6.43;5.93;;;11.30;67.10;;;;;;5077059;28;20222;-81
2022/04/12 07:24:07;;;;;;;12.27;6.50;;;11.30;67.50;;;;;;5079821;28;20207;-81
2022/04/12 07:26:34;;;;;;;5.73;5.23;;;11.30;69.10;;;;;;5077917;28;20191;-82
2022/04/12 07:28:59;;;;;;;5.87;5.20;;;11.30;68.00;;;;;;5085034;28;20263;-80
2022/04/12 07:31:26;;;;;;;9.97;5.47;;;11.40;67.00;;;;;;5090109;28;20669;-81
2022/04/12 07:33:52;;;;;;;7.20;5.40;;;11.60;67.30;;;;;;5090880;28;20211;-83
2022/04/12 07:36:18;;;;;;;5.57;5.07;;;11.80;65.70;;;;;;5088544;28;20269;-82
2022/04/12 07:38:44;;;;;;;7.37;5.20;;;11.90;65.40;;;;;;5079313;28;20286;-83
2022/04/12 07:41:10;;;;;;;18.87;6.00;;;12.10;65.10;;;;;;5080655;28;20202;-82
2022/04/12 07:43:38;;;;;;;10.37;5.00;;;12.30;64.30;;;;;;5077037;28;20212;-82
2022/04/12 07:46:04;;;;;;;9.43;5.60;;;12.20;64.80;;;;;;5079199;28;20184;-83
2022/04/12 07:48:31;;;;;;;5.97;4.77;;;12.30;63.60;;;;;;5079929;28;20195;-82
2022/04/12 07:50:57;;;;;;;12.80;5.53;;;12.40;62.50;;;;;;5076195;28;20288;-84
2022/04/12 07:53:22;;;;;;;9.10;5.20;;;12.50;61.90;;;;;;5081144;28;20199;-85
2022/04/12 07:55:48;;;;;;;5.63;4.73;;;12.50;61.00;;;;;;5078236;28;20195;-81
2022/04/12 07:58:15;;;;;;;11.00;6.03;;;12.50;60.50;;;;;;5081693;28;20282;-83
2022/04/12 08:00:41;;;;;;;7.07;5.50;;;12.50;61.10;;;;;;5078863;28;20577;-82
2022/04/12 08:03:07;;;;;;;10.63;5.70;;;12.50;60.90;;;;;;5078294;28;20203;-82
2022/04/12 08:05:34;;;;;;;7.10;5.30;;;12.40;61.20;;;;;;5080219;28;20199;-81
2022/04/12 08:08:00;;;;;;;9.90;5.30;;;12.60;59.70;;;;;;5081157;28;20202;-80
2022/04/12 08:10:26;;;;;;;565.90;56.57;;;12.60;59.90;;;;;;5080740;28;20206;-80
2022/04/12 08:12:52;;;;;;;8.40;5.47;;;12.70;60.10;;;;;;5078624;28;20709;-80
2022/04/12 08:15:19;;;;;;;6.10;4.97;;;12.90;59.80;;;;;;5080428;28;20212;-80
2022/04/12 08:17:45;;;;;;;241.83;28.03;;;13.10;58.70;;;;;;5076740;28;20195;-81
2022/04/12 08:20:13;;;;;;;8.50;5.23;;;13.30;58.40;;;;;;5085370;28;20215;-80
2022/04/12 08:22:40;;;;;;;8.33;5.30;;;13.30;58.10;;;;;;5083353;28;20219;-80
2022/04/12 08:25:07;;;;;;;8.87;5.70;;;13.50;57.30;;;;;;5086467;28;20215;-81
2022/04/12 08:27:32;;;;;;;6.93;5.27;;;13.50;57.00;;;;;;5090415;28;20258;-80
2022/04/12 08:29:58;;;;;;;7.53;5.23;;;13.60;56.60;;;;;;5085592;28;20195;-79
2022/04/12 08:32:24;;;;;;;6.40;4.93;;;13.70;56.30;;;;;;5088864;28;20199;-81
2022/04/12 08:34:50;;;;;;;7.77;5.17;;;13.80;56.00;;;;;;5077942;28;20243;-82
2022/04/12 08:37:16;;;;;;;12.07;6.20;;;13.90;56.30;;;;;;5070141;28;20205;-82
2022/04/12 08:39:42;;;;;;;8.77;5.67;;;14.10;55.10;;;;;;5074877;28;20277;-82
2022/04/12 08:42:08;;;;;;;6.77;5.00;;;14.30;54.60;;;;;;5077580;28;20890;-81
2022/04/12 08:44:36;;;;;;;9.30;5.37;;;14.40;52.70;;;;;;5077661;28;20214;-81
2022/04/12 08:47:04;;;;;;;9.33;5.53;;;14.50;52.80;;;;;;5079823;28;20189;-81
2022/04/12 08:49:30;;;;;;;8.10;5.77;;;14.70;52.30;;;;;;5078580;28;20225;-82
2022/04/12 08:51:56;;;;;;;7.20;5.83;;;14.80;53.60;;;;;;5076659;28;20226;-82
2022/04/12 08:54:22;;;;;;;9.17;6.10;;;15.00;51.60;;;;;;5073690;28;20290;-81
2022/04/12 08:56:50;;;;;;;7.67;5.23;;;15.10;52.40;;;;;;5077709;28;20233;-81
2022/04/12 08:59:17;;;;;;;6.40;4.97;;;15.10;50.70;;;;;;5081597;28;20203;-80
2022/04/12 09:01:44;;;;;;;8.17;5.17;;;15.20;50.80;;;;;;5082481;28;20205;-81
2022/04/12 09:04:13;;;;;;;5.27;4.80;;;15.30;52.20;;;;;;5078104;28;20493;-83
2022/04/12 09:06:56;;;;;;;5.83;5.23;;;15.40;51.00;;;;;;5076868;28;20191;-81
2022/04/12 09:09:24;;;;;;;6.73;5.00;;;15.30;50.50;;;;;;5077526;28;20569;-84
2022/04/12 09:12:12;;;;;;;6.80;5.13;;;15.30;51.50;;;;;;5078940;28;20187;-83
2022/04/12 09:14:40;;;;;;;7.30;5.20;;;15.50;50.00;;;;;;5076278;28;20204;-82
2022/04/12 09:17:11;;;;;;;5.07;4.57;;;15.60;50.50;;;;;;5078192;28;20188;-83
2022/04/12 09:19:48;;;;;;;8.23;4.63;;;15.50;52.20;;;;;;5080377;28;20202;-83
2022/04/12 09:22:17;;;;;;;6.27;4.50;;;15.70;50.70;;;;;;5083058;28;20184;-81
2022/04/12 09:24:48;;;;;;;6.93;4.67;;;16.00;50.50;;;;;;5083455;28;20210;-84
2022/04/12 09:27:16;;;;;;;5.30;4.60;;;15.90;50.20;;;;;;5084402;28;20191;-83
2022/04/12 09:29:51;;;;;;;6.43;4.47;;;15.90;50.40;;;;;;5082813;28;20694;-84
2022/04/12 09:32:22;;;;;;;7.20;3.97;;;16.20;49.70;;;;;;5082921;28;20195;-83
2022/04/12 09:34:49;;;;;;;5.07;4.27;;;16.50;49.50;;;;;;5083574;28;20211;-82
2022/04/12 09:37:17;;;;;;;5.47;4.30;;;16.90;48.40;;;;;;5079472;28;20747;-83
2022/04/12 09:40:08;;;;;;;7.00;4.20;;;17.10;48.10;;;;;;5081933;28;20342;-84
2022/04/12 09:42:39;;;;;;;7.00;4.10;;;17.30;47.60;;;;;;5076370;28;20192;-83
2022/04/12 09:45:06;;;;;;;5.47;4.20;;;17.50;47.20;;;;;;5083002;28;20213;-84
2022/04/12 09:47:32;;;;;;;5.30;3.90;;;17.80;45.60;;;;;;5086157;28;20241;-84
2022/04/12 09:50:00;;;;;;;4.40;4.00;;;18.00;45.00;;;;;;5079869;28;20173;-83
2022/04/12 09:52:29;;;;;;;5.43;3.97;;;18.00;44.50;;;;;;5083118;28;20267;-82
2022/04/12 09:54:56;;;;;;;5.00;4.27;;;17.90;45.20;;;;;;5084741;28;20237;-84
2022/04/12 09:57:23;;;;;;;4.78;4.07;;;18.10;46.50;;;;;;5081730;28;20191;-84
2022/04/12 09:59:50;;;;;;;4.10;3.55;;;18.30;44.00;;;;;;5084822;28;20210;-82
2022/04/12 10:02:16;;;;;;;6.17;4.03;;;18.50;43.80;;;;;;5087459;28;20216;-82
2022/04/12 10:04:46;;;;;;;4.18;3.78;;;18.40;43.20;;;;;;5083605;28;20197;-84
2022/04/12 10:07:17;;;;;;;5.32;4.40;;;18.80;44.10;;;;;;5077956;28;20701;-83
2022/04/12 10:09:44;;;;;;;5.47;3.63;;;19.00;42.10;;;;;;5079708;28;20564;-84
2022/04/12 10:12:11;;;;;;;4.65;3.70;;;19.10;45.30;;;;;;5079602;28;20682;-83
2022/04/12 10:14:37;;;;;;;4.63;3.95;;;19.40;42.90;;;;;;5081853;28;20664;-84
2022/04/12 10:17:04;;;;;;;7.22;4.35;;;19.50;41.00;;;;;;5079987;28;20176;-83
2022/04/12 10:19:30;;;;;;;4.72;3.72;;;19.60;41.30;;;;;;5079510;28;20215;-84
2022/04/12 10:21:56;;;;;;;7.60;3.97;;;19.80;40.80;;;;;;5081273;28;20184;-85
2022/04/12 10:24:23;;;;;;;4.95;3.83;;;20.00;41.00;;;;;;5074338;28;20212;-82
2022/04/12 10:26:50;;;;;;;4.63;3.55;;;20.10;40.00;;;;;;5081493;28;20186;-82
2022/04/12 10:29:16;;;;;;;5.50;4.55;;;20.20;40.30;;;;;;5077666;28;20263;-81
2022/04/12 10:32:03;;;;;;;7.60;4.15;;;20.30;39.70;;;;;;5078450;28;20692;-83
2022/04/12 10:34:29;;;;;;;5.13;4.50;;;20.50;39.70;;;;;;5078276;28;20309;-84
2022/04/12 10:36:58;;;;;;;5.47;3.90;;;20.50;40.70;;;;;;5078213;28;20195;-84
2022/04/12 10:39:46;;;;;;;5.88;4.53;;;20.60;39.80;;;;;;5078874;28;20222;-84
2022/04/12 10:42:17;;;;;;;5.35;3.70;;;20.70;39.70;;;;;;5077794;28;20188;-84
2022/04/12 10:44:46;;;;;;;6.43;4.43;;;20.90;39.30;;;;;;5077815;28;20211;-83
2022/04/12 10:47:31;;;;;;;7.13;4.50;;;20.90;39.00;;;;;;5071602;28;20195;-85
2022/04/12 10:50:06;;;;;;;8.30;4.35;;;21.00;39.10;;;;;;5080736;28;20702;-83
2022/04/12 10:52:43;;;;;;;5.10;4.13;;;20.90;39.20;;;;;;5078466;28;20191;-84
2022/04/12 10:55:13;;;;;;;5.80;4.40;;;20.80;39.90;;;;;;5081065;28;20199;-83
2022/04/12 10:57:40;;;;;;;4.80;4.28;;;21.10;39.80;;;;;;5082507;28;20218;-83
2022/04/12 11:00:14;;;;;;;5.60;3.90;;;21.20;39.40;;;;;;5084095;28;20215;-84
2022/04/12 11:02:45;;;;;;;5.43;4.22;;;21.30;38.50;;;;;;5086186;28;20191;-84
2022/04/12 11:05:33;;;;;;;4.78;3.67;;;21.30;39.20;;;;;;5077884;28;20575;-83
2022/04/12 11:08:33;;;;;;;4.65;4.18;;;21.60;38.90;;;;;;5078910;28;20240;-84
2022/04/12 11:10:59;;;;;;;4.43;3.63;;;21.90;38.20;;;;;;5005917;28;20690;-84
2022/04/12 11:13:28;;;;;;;6.22;3.83;;;22.10;37.70;;;;;;5086215;28;20217;-84
2022/04/12 11:16:00;;;;;;;4.40;3.70;;;22.20;37.50;;;;;;5088262;28;20211;-85
2022/04/12 11:18:48;;;;;;;4.82;3.47;;;22.10;36.40;;;;;;5080522;28;20634;-83
2022/04/12 11:21:14;;;;;;;3.70;3.40;;;22.00;36.80;;;;;;5076295;28;20188;-83
2022/04/12 11:23:55;;;;;;;6.75;4.28;;;22.30;36.30;;;;;;5076667;28;20210;-85
2022/04/12 11:26:40;;;;;;;6.45;4.55;;;22.40;36.30;;;;;;5082347;28;20194;-83
2022/04/12 11:29:17;;;;;;;7.40;4.15;;;22.70;36.30;;;;;;5075458;28;20234;-84
2022/04/12 11:31:50;;;;;;;5.05;3.90;;;23.10;35.30;;;;;;5082156;28;20180;-85
2022/04/12 11:34:17;;;;;;;7.45;4.00;;;23.30;36.00;;;;;;5076418;28;20313;-84
2022/04/12 11:36:51;;;;;;;6.57;3.88;;;23.40;35.00;;;;;;5080429;28;20180;-84
2022/04/12 11:39:21;;;;;;;4.07;3.67;;;23.40;35.00;;;;;;5081870;28;20219;-84
2022/04/12 11:41:47;;;;;;;5.63;3.80;;;23.40;35.10;;;;;;5080692;28;20681;-83
2022/04/12 11:44:13;;;;;;;5.28;3.75;;;23.60;35.20;;;;;;5075505;28;20208;-84
2022/04/12 11:46:39;;;;;;;4.50;3.33;;;23.90;34.30;;;;;;5094339;28;20203;-84
2022/04/12 11:49:10;;;;;;;5.45;3.47;;;23.90;34.60;;;;;;5077520;28;20196;-83
2022/04/12 11:52:00;;;;;;;4.55;3.55;;;23.90;35.00;;;;;;5072464;28;20186;-83
2022/04/12 11:54:27;;;;;;;3.85;3.55;;;24.20;33.50;;;;;;5080094;28;20200;-83
2022/04/12 11:57:07;;;;;;;3.53;3.22;;;24.10;34.00;;;;;;5077572;28;20187;-83
2022/04/12 11:59:52;;;;;;;4.90;3.97;;;23.90;34.70;;;;;;5076704;28;20195;-83
2022/04/12 12:02:20;;;;;;;5.97;3.97;;;24.40;36.20;;;;;;5092100;28;20187;-83
2022/04/12 12:04:53;;;;;;;11.02;4.30;;;24.30;35.10;;;;;;5078224;28;20309;-82
2022/04/12 12:07:19;;;;;;;3.90;3.60;;;24.70;33.80;;;;;;5078010;28;20175;-83
2022/04/12 12:09:57;;;;;;;5.97;4.07;;;24.80;33.00;;;;;;5081212;28;20199;-83
2022/04/12 12:12:34;;;;;;;5.18;4.07;;;24.90;32.80;;;;;;5072160;28;20195;-82
2022/04/12 12:15:23;;;;;;;4.78;4.03;;;25.00;33.30;;;;;;5073512;28;20204;-83
2022/04/12 12:17:57;;;;;;;5.38;3.80;;;25.30;32.40;;;;;;5076099;28;20176;-83
2022/04/12 12:20:25;;;;;;;7.35;4.03;;;25.70;32.50;;;;;;5078372;28;20676;-83
2022/04/12 12:22:55;;;;;;;6.53;3.83;;;25.90;32.70;;;;;;5080732;28;20194;-83
2022/04/12 12:25:39;;;;;;;4.28;3.88;;;25.90;31.40;;;;;;5078160;28;20199;-83
2022/04/12 12:28:15;;;;;;;6.30;4.63;;;25.90;31.50;;;;;;5075665;28;20685;-83
2022/04/12 12:30:46;;;;;;;5.80;3.97;;;26.10;31.90;;;;;;5080618;28;20190;-84
2022/04/12 12:33:12;;;;;;;6.45;4.22;;;25.80;31.60;;;;;;5082066;28;20183;-84
2022/04/12 12:35:44;;;;;;;5.03;4.03;;;25.60;32.70;;;;;;5079877;28;20209;-82
2022/04/12 12:38:21;;;;;;;4.65;3.58;;;25.40;33.20;;;;;;5077131;28;20196;-83
2022/04/12 12:40:47;;;;;;;33.08;7.75;;;25.90;31.20;;;;;;5079732;28;20203;-83
2022/04/12 12:43:14;;;;;;;8.70;7.90;;;26.20;31.30;;;;;;5079049;28;20193;-83
2022/04/12 12:45:43;;;;;;;9.60;3.90;;;26.60;30.50;;;;;;5077063;28;20187;-84
2022/04/12 12:48:13;;;;;;;3.63;3.25;;;26.90;29.80;;;;;;5077186;28;20180;-83
2022/04/12 12:50:39;;;;;;;4.05;3.30;;;27.00;30.10;;;;;;5081076;28;20652;-81
2022/04/12 12:53:07;;;;;;;6.32;3.85;;;27.40;30.40;;;;;;5079182;28;20191;-84
2022/04/12 12:55:40;;;;;;;4.68;3.60;;;27.60;29.20;;;;;;5082881;28;20335;-82